North Babylon, New York
Current Conditions -  °F | °C
As of 2:53 PM on Friday 21 Nov 2014 (Local Time) from KFRG Reporting Station
Clear Clear  
Wind Chill: 28°   Ceiling: Unl
Heat Index: 37°   Visibility: 10mi
Dew Point:   Wind: 15mph
Humidity: 31%   Direction: 330°NNW
Pressure: 30.32"   Gusts: 25mph
Location:  40.74°N, 73.32°W
Report Text: KFRG 211953Z 33013G22KT 10SM CLR 03/M13 A3032 RMK AO2 SLP268 T00281128
Loading
Personal Weather Stations






























Interactive Weather Map New forecast layout! Learn more

10-Day Weather Forecast

Advertisements
Track Severe Weather on mobile